Time;durP1;ratioP1;P1;durP2;ratioP2;P2;SDS_P1;SDS_P2;PMS_P1;PMS_P2;Temp;Humidity;BMP_temperature;BMP_pressure;BME280_temperature;BME280_humidity;BME280_pressure;Samples;Min_cycle;Max_cycle;Signal;HPM_P1;HPM_P2
2022/04/05 00:02:11;;;;;;;6.90;6.10;;;;;;;7.36;53.02;99938.34;5105332;28;20412;-78
2022/04/05 00:04:37;;;;;;;7.30;6.20;;;;;;;7.40;53.99;99941.38;5100100;28;20778;-78
2022/04/05 00:07:02;;;;;;;6.60;5.87;;;;;;;7.37;53.60;99941.84;5111570;28;20509;-79
2022/04/05 00:09:27;;;;;;;7.47;5.80;;;;;;;7.37;53.50;99937.28;5104651;28;20419;-79
2022/04/05 00:11:53;;;;;;;6.37;5.80;;;;;;;7.40;53.87;99939.50;5093704;28;20410;-80
2022/04/05 00:14:18;;;;;;;7.77;6.20;;;;;;;7.41;53.60;99938.44;5109395;28;20871;-80
2022/04/05 00:16:44;;;;;;;6.77;6.13;;;;;;;7.32;54.02;99935.28;5108876;28;20410;-79
2022/04/05 00:19:09;;;;;;;8.03;6.13;;;;;;;7.29;53.60;99937.63;5106453;28;20767;-79
2022/04/05 00:21:34;;;;;;;7.20;6.30;;;;;;;7.36;54.04;99919.47;5094326;28;20397;-79
2022/04/05 00:24:00;;;;;;;6.40;5.80;;;;;;;7.31;53.95;99927.41;5106040;28;20384;-79
2022/04/05 00:26:25;;;;;;;6.75;5.95;;;;;;;7.40;53.67;99920.63;5099261;28;20418;-79
2022/04/05 00:28:50;;;;;;;6.13;5.63;;;;;;;7.31;53.65;99911.25;5093845;28;20832;-79
2022/04/05 00:31:16;;;;;;;6.63;5.97;;;;;;;7.25;53.88;99906.81;5100110;28;20397;-79
2022/04/05 00:33:41;;;;;;;6.93;6.07;;;;;;;7.28;53.07;99906.34;5106638;28;20385;-79
2022/04/05 00:36:06;;;;;;;6.73;6.13;;;;;;;7.25;52.85;99886.06;5099491;28;20444;-79
2022/04/05 00:38:32;;;;;;;7.23;5.80;;;;;;;7.28;53.55;99898.25;5109811;28;20411;-79
2022/04/05 00:40:57;;;;;;;7.67;6.60;;;;;;;7.22;53.43;99893.81;5096720;28;20460;-80
2022/04/05 00:43:22;;;;;;;6.87;6.20;;;;;;;7.25;53.14;99890.66;5103043;28;20386;-79
2022/04/05 00:45:48;;;;;;;7.33;6.50;;;;;;;7.24;53.22;99891.72;5101889;28;20907;-79
2022/04/05 00:48:27;;;;;;;9.67;6.47;;;;;;;7.30;54.24;99885.38;5104740;28;20491;-80
2022/04/05 00:50:53;;;;;;;8.50;6.93;;;;;;;7.28;55.54;99899.06;5093714;28;20394;-79
2022/04/05 00:53:21;;;;;;;7.55;6.85;;;;;;;7.32;55.84;99899.44;5102887;28;20748;-80
2022/04/05 00:55:48;;;;;;;7.35;6.53;;;;;;;7.18;56.16;99898.03;5099150;28;20405;-79
2022/04/05 00:58:15;;;;;;;8.15;6.47;;;;;;;7.14;56.21;99902.28;5105163;28;20752;-79
2022/04/05 01:00:41;;;;;;;7.25;6.53;;;;;;;7.17;56.26;99889.16;5106695;28;20806;-79
2022/04/05 01:03:06;;;;;;;7.47;6.60;;;;;;;7.16;56.03;99890.19;5095841;28;20402;-79
2022/04/05 01:05:32;;;;;;;9.00;6.67;;;;;;;7.17;55.80;99894.53;5105026;28;20438;-79
2022/04/05 01:07:59;;;;;;;7.13;6.53;;;;;;;7.19;55.35;99897.81;5107762;28;20399;-79
2022/04/05 01:10:27;;;;;;;6.72;6.05;;;;;;;7.13;55.83;99892.53;5105547;28;20763;-80
2022/04/05 01:12:53;;;;;;;6.35;5.75;;;;;;;7.11;55.20;99892.75;5104457;28;20389;-79
2022/04/05 01:15:18;;;;;;;6.53;5.93;;;;;;;7.07;55.88;99891.63;5099250;28;20913;-79
2022/04/05 01:17:43;;;;;;;6.47;5.75;;;;;;;7.05;56.80;99888.31;5092502;28;20398;-79
2022/04/05 01:20:09;;;;;;;8.90;6.80;;;;;;;7.04;57.24;99888.56;5103750;28;20941;-79
2022/04/05 01:22:34;;;;;;;7.97;6.17;;;;;;;7.01;57.64;99884.50;5108305;28;20740;-79
2022/04/05 01:25:00;;;;;;;9.23;6.40;;;;;;;7.09;58.87;99889.50;5100029;28;20425;-80
2022/04/05 01:27:27;;;;;;;7.60;6.47;;;;;;;7.03;59.30;99887.75;5091230;28;20897;-80
2022/04/05 01:29:53;;;;;;;7.03;6.30;;;;;;;6.96;59.74;99878.97;5096527;28;20392;-79
2022/04/05 01:32:19;;;;;;;12.20;8.77;;;;;;;6.96;59.60;99878.16;5105253;28;20385;-79
2022/04/05 01:34:44;;;;;;;8.20;6.87;;;;;;;6.94;59.33;99877.56;5097420;28;20401;-80
2022/04/05 01:37:10;;;;;;;7.97;7.05;;;;;;;6.91;60.09;99872.66;5106495;28;20395;-80
2022/04/05 01:39:37;;;;;;;7.10;6.40;;;;;;;6.78;59.13;99879.09;5107235;28;20409;-79
2022/04/05 01:42:08;;;;;;;9.25;6.85;;;;;;;6.85;59.21;99879.78;5099546;28;20401;-79
2022/04/05 01:44:35;;;;;;;7.38;6.20;;;;;;;6.97;59.09;99871.72;5091314;28;20390;-79
2022/04/05 01:47:07;;;;;;;9.38;6.80;;;;;;;6.92;58.77;99869.72;5106679;28;20384;-79
2022/04/05 01:49:32;;;;;;;7.47;6.78;;;;;;;6.92;58.56;99868.88;5098524;28;20411;-79
2022/04/05 01:51:58;;;;;;;10.13;6.23;;;;;;;6.84;58.71;99875.47;5103330;28;20406;-79
2022/04/05 01:54:23;;;;;;;8.13;6.43;;;;;;;6.87;58.28;99863.41;5092420;28;20378;-79
2022/04/05 01:56:51;;;;;;;6.67;6.13;;;;;;;6.92;58.23;99848.16;5098809;28;20881;-79
2022/04/05 01:59:18;;;;;;;8.18;6.00;;;;;;;6.94;57.14;99854.16;5093309;28;20410;-80
2022/04/05 02:01:44;;;;;;;11.05;6.93;;;;;;;6.97;57.14;99845.59;5092424;28;20405;-79
2022/04/05 02:04:11;;;;;;;7.90;6.30;;;;;;;6.91;57.56;99851.09;5093669;28;20413;-79
2022/04/05 02:06:38;;;;;;;8.90;6.30;;;;;;;6.96;57.47;99856.59;5105571;28;20483;-79
2022/04/05 02:09:04;;;;;;;6.78;5.97;;;;;;;6.92;57.48;99856.25;5108761;28;20389;-79
2022/04/05 02:11:29;;;;;;;6.93;6.30;;;;;;;6.96;57.04;99848.50;5105797;28;20489;-80
2022/04/05 02:13:55;;;;;;;8.50;7.70;;;;;;;6.96;56.86;99864.69;5101732;28;20427;-79
2022/04/05 02:16:20;;;;;;;9.67;6.57;;;;;;;6.99;56.81;99867.72;5098418;28;20422;-80
2022/04/05 02:18:45;;;;;;;7.10;6.17;;;;;;;6.96;57.23;99861.97;5092472;28;21156;-79
2022/04/05 02:21:11;;;;;;;7.43;6.73;;;;;;;6.93;58.55;99857.88;5108693;28;20410;-80
2022/04/05 02:23:36;;;;;;;7.70;6.27;;;;;;;6.89;59.24;99862.09;5112238;28;20765;-79
2022/04/05 02:26:02;;;;;;;6.70;6.10;;;;;;;6.90;59.87;99869.13;5098068;28;20409;-81
2022/04/05 02:28:27;;;;;;;8.63;6.75;;;;;;;6.84;59.91;99866.56;5108243;28;20400;-79
2022/04/05 02:30:53;;;;;;;8.00;6.47;;;;;;;6.85;59.18;99868.22;5091837;28;20433;-79
2022/04/05 02:33:18;;;;;;;7.33;6.53;;;;;;;6.85;58.82;99870.91;5096328;28;20384;-78
2022/04/05 02:35:44;;;;;;;7.33;6.00;;;;;;;6.92;58.76;99867.03;5102849;28;20889;-79
2022/04/05 02:38:10;;;;;;;8.93;6.22;;;;;;;6.92;58.18;99864.31;5109779;28;20395;-79
2022/04/05 02:40:36;;;;;;;6.70;6.10;;;;;;;6.86;57.98;99857.19;5098750;28;20493;-79
2022/04/05 02:43:02;;;;;;;6.33;5.83;;;;;;;6.92;57.99;99871.59;5098157;28;20941;-80
2022/04/05 02:45:27;;;;;;;6.97;6.28;;;;;;;6.89;57.88;99870.19;5100930;28;21361;-79
2022/04/05 02:47:52;;;;;;;6.20;5.60;;;;;;;6.94;57.85;99873.00;5096551;28;20400;-79
2022/04/05 02:50:18;;;;;;;6.27;5.77;;;;;;;6.96;57.51;99862.81;5106260;28;20423;-80
2022/04/05 02:52:47;;;;;;;6.43;5.82;;;;;;;7.08;56.67;99863.59;5097434;28;20396;-79
2022/04/05 02:55:14;;;;;;;9.23;6.30;;;;;;;7.11;57.15;99859.63;5100608;28;20401;-80
2022/04/05 02:57:41;;;;;;;8.50;6.35;;;;;;;7.09;57.04;99870.63;5109105;28;20801;-79
2022/04/05 03:00:08;;;;;;;6.20;5.60;;;;;;;7.02;57.06;99866.41;5095222;28;20749;-80
2022/04/05 03:02:34;;;;;;;6.75;6.10;;;;;;;7.04;57.39;99880.50;5101829;28;20396;-80
2022/04/05 03:05:01;;;;;;;6.28;5.30;;;;;;;7.06;57.59;99881.88;5104468;28;20863;-80
2022/04/05 03:07:26;;;;;;;7.15;6.45;;;;;;;7.10;59.00;99884.94;5091318;28;20405;-80
2022/04/05 03:09:52;;;;;;;6.40;5.80;;;;;;;7.10;59.42;99883.06;5107885;28;20380;-80
2022/04/05 03:12:18;;;;;;;7.00;6.30;;;;;;;6.97;60.59;99880.63;5091607;28;20413;-79
2022/04/05 03:14:45;;;;;;;7.05;6.30;;;;;;;6.80;61.68;99882.38;5100852;28;20400;-80
2022/04/05 03:17:11;;;;;;;8.70;6.50;;;;;;;6.75;62.20;99885.75;5106788;28;20396;-80
2022/04/05 03:19:36;;;;;;;10.27;5.43;;;;;;;6.63;63.18;99893.03;5095008;28;20501;-81
2022/04/05 03:22:02;;;;;;;7.10;6.50;;;;;;;6.51;64.60;99881.44;5105017;28;20405;-80
2022/04/05 03:24:28;;;;;;;10.70;7.38;;;;;;;6.54;65.09;99888.22;5092698;28;20390;-80
2022/04/05 03:26:53;;;;;;;6.88;5.75;;;;;;;6.50;66.05;99870.88;5099999;28;20942;-80
2022/04/05 03:29:18;;;;;;;6.80;6.20;;;;;;;6.36;66.28;99874.81;5094535;28;20394;-80
2022/04/05 03:31:44;;;;;;;7.27;6.30;;;;;;;6.47;65.97;99882.94;5093645;28;20422;-81
2022/04/05 03:34:09;;;;;;;7.93;6.83;;;;;;;6.45;66.24;99884.22;5098027;28;20931;-80
2022/04/05 03:36:34;;;;;;;8.93;6.33;;;;;;;6.42;67.43;99898.16;5107248;28;20499;-80
2022/04/05 03:39:00;;;;;;;8.30;6.70;;;;;;;6.34;68.15;99883.16;5103422;28;20449;-81
2022/04/05 03:41:25;;;;;;;9.43;6.80;;;;;;;6.18;69.87;99887.34;5091701;28;20443;-81
2022/04/05 03:43:50;;;;;;;6.97;6.38;;;;;;;6.08;71.23;99880.88;5100846;28;20509;-81
2022/04/05 03:46:15;;;;;;;7.30;6.70;;;;;;;6.03;71.22;99872.66;5091189;28;20382;-80
2022/04/05 03:48:42;;;;;;;9.60;6.67;;;;;;;6.01;71.29;99878.28;5104426;28;20504;-80
2022/04/05 03:51:09;;;;;;;9.10;6.97;;;;;;;5.96;71.96;99880.81;5095416;28;20419;-82
2022/04/05 03:53:35;;;;;;;8.18;7.35;;;;;;;5.98;72.80;99876.03;5088231;28;20913;-81
2022/04/05 03:56:01;;;;;;;10.10;7.47;;;;;;;6.14;71.92;99879.94;5105161;28;20421;-81
2022/04/05 03:58:27;;;;;;;8.13;7.28;;;;;;;6.10;72.37;99887.66;5099947;28;20394;-81
2022/04/05 04:00:53;;;;;;;9.93;8.47;;;;;;;6.07;72.76;99881.91;5110841;28;20403;-82
2022/04/05 04:03:19;;;;;;;8.95;7.53;;;;;;;6.05;72.84;99895.59;5104715;28;20427;-81
2022/04/05 04:05:44;;;;;;;8.67;7.57;;;;;;;5.98;73.50;99888.66;5106825;28;20892;-81
2022/04/05 04:08:09;;;;;;;8.97;8.13;;;;;;;6.01;73.12;99885.50;5097310;28;20410;-81
2022/04/05 04:10:34;;;;;;;8.23;7.43;;;;;;;5.97;73.36;99885.16;5106651;28;20903;-81
2022/04/05 04:13:00;;;;;;;8.93;7.80;;;;;;;5.95;73.53;99881.06;5098949;28;20432;-82
2022/04/05 04:15:25;;;;;;;9.40;7.80;;;;;;;5.92;73.63;99876.97;5096975;28;20977;-82
2022/04/05 04:17:50;;;;;;;10.30;7.60;;;;;;;5.98;73.40;99873.34;5100752;28;20406;-82
2022/04/05 04:20:15;;;;;;;8.90;7.90;;;;;;;5.97;73.48;99873.56;5097931;28;20509;-82
2022/04/05 04:22:41;;;;;;;8.50;7.67;;;;;;;5.87;73.80;99865.22;5104895;28;20886;-81
2022/04/05 04:25:07;;;;;;;8.80;7.90;;;;;;;5.90;73.82;99862.06;5095291;28;20575;-80
2022/04/05 04:27:34;;;;;;;11.25;8.57;;;;;;;5.91;73.75;99858.34;5101232;28;20482;-82
2022/04/05 04:30:00;;;;;;;11.35;8.30;;;;;;;5.73;74.47;99861.88;5106249;28;20396;-82
2022/04/05 04:32:25;;;;;;;12.02;9.55;;;;;;;5.73;74.67;99856.50;5097519;28;20405;-81
2022/04/05 04:34:51;;;;;;;10.32;8.52;;;;;;;5.73;73.68;99859.19;5108186;27;20393;-82
2022/04/05 04:37:16;;;;;;;10.00;7.87;;;;;;;5.93;73.27;99858.97;5112365;28;20432;-82
2022/04/05 04:39:41;;;;;;;8.75;7.78;;;;;;;5.93;72.89;99859.75;5107307;28;20406;-82
2022/04/05 04:42:07;;;;;;;8.83;8.03;;;;;;;5.86;73.24;99855.53;5099797;28;20398;-83
2022/04/05 04:44:32;;;;;;;9.30;7.67;;;;;;;5.86;73.06;99850.97;5110261;28;20389;-82
2022/04/05 04:46:58;;;;;;;9.57;8.40;;;;;;;5.90;72.59;99870.97;5110796;28;20911;-83
2022/04/05 04:49:24;;;;;;;9.02;8.13;;;;;;;5.87;72.68;99858.00;5102541;28;20741;-85
2022/04/05 04:51:49;;;;;;;9.57;7.72;;;;;;;5.74;72.83;99860.84;5092267;28;20378;-81
2022/04/05 04:54:14;;;;;;;8.73;7.90;;;;;;;5.89;72.80;99858.59;5107250;28;20450;-81
2022/04/05 04:56:40;;;;;;;9.20;8.30;;;;;;;5.92;72.74;99865.38;5109701;28;20471;-82
2022/04/05 04:59:05;;;;;;;8.77;7.80;;;;;;;5.82;72.57;99852.47;5109019;28;20396;-81
2022/04/05 05:01:30;;;;;;;8.80;7.93;;;;;;;5.88;72.36;99866.88;5111245;28;20899;-81
2022/04/05 05:03:55;;;;;;;9.33;8.40;;;;;;;5.90;72.01;99862.06;5102134;28;20410;-83
2022/04/05 05:06:21;;;;;;;10.93;8.70;;;;;;;5.88;72.37;99870.41;5103109;28;20404;-81
2022/04/05 05:08:46;;;;;;;9.70;8.50;;;;;;;5.78;72.52;99878.16;5095665;28;20822;-81
2022/04/05 05:11:11;;;;;;;10.17;9.07;;;;;;;5.83;72.69;99882.88;5105523;28;20427;-80
2022/04/05 05:13:37;;;;;;;10.83;8.20;;;;;;;5.75;72.72;99878.63;5104975;28;20393;-81
2022/04/05 05:16:03;;;;;;;9.03;7.90;;;;;;;5.71;73.11;99882.78;5107551;28;20418;-81
2022/04/05 05:18:29;;;;;;;8.60;7.80;;;;;;;5.70;73.28;99886.53;5105691;28;20470;-81
2022/04/05 05:20:54;;;;;;;10.93;8.70;;;;;;;5.68;73.52;99880.56;5105914;28;20998;-81
2022/04/05 05:23:19;;;;;;;11.13;8.80;;;;;;;5.76;72.72;99883.75;5113228;28;20385;-82
2022/04/05 05:25:46;;;;;;;11.53;8.47;;;;;;;5.84;72.60;99881.78;5095001;28;20496;-82
2022/04/05 05:28:11;;;;;;;9.60;8.60;;;;;;;5.80;72.70;99881.41;5104715;27;20452;-81
2022/04/05 05:30:37;;;;;;;10.33;8.37;;;;;;;5.80;72.50;99883.28;5105220;27;20384;-81
2022/04/05 05:33:02;;;;;;;9.47;8.57;;;;;;;5.80;72.53;99891.34;5110326;28;20798;-82
2022/04/05 05:35:28;;;;;;;9.80;8.45;;;;;;;5.79;72.83;99893.25;5095744;28;20413;-81
2022/04/05 05:37:56;;;;;;;8.80;7.85;;;;;;;5.84;72.08;99901.44;5095902;28;20398;-82
2022/04/05 05:40:21;;;;;;;8.80;8.02;;;;;;;5.82;72.14;99908.09;5104417;28;20477;-80
2022/04/05 05:42:55;;;;;;;8.93;8.07;;;;;;;5.83;72.26;99899.00;5105705;28;20903;-81
2022/04/05 05:45:21;;;;;;;9.95;8.07;;;;;;;5.78;72.32;99914.97;5105740;28;20401;-81
2022/04/05 05:47:46;;;;;;;9.73;8.73;;;;;;;5.93;71.94;99910.84;5105122;28;20431;-81
2022/04/05 05:50:13;;;;;;;11.93;8.50;;;;;;;5.85;72.71;99918.41;5105692;28;20444;-80
2022/04/05 05:52:40;;;;;;;9.13;8.23;;;;;;;5.76;72.53;99907.94;5105220;28;20392;-86
2022/04/05 05:55:07;;;;;;;8.85;8.02;;;;;;;5.80;72.66;99913.69;5104418;28;20446;-81
2022/04/05 05:57:33;;;;;;;10.02;8.65;;;;;;;5.74;73.07;99904.66;5105325;28;20399;-82
2022/04/05 05:59:58;;;;;;;8.82;7.93;;;;;;;5.68;73.33;99900.22;5105189;28;20801;-82
2022/04/05 06:02:23;;;;;;;9.80;8.90;;;;;;;5.85;72.80;99905.78;5105712;28;20389;-82
2022/04/05 06:04:48;;;;;;;9.60;8.57;;;;;;;5.78;72.87;99888.91;5102929;28;20516;-83
2022/04/05 06:07:14;;;;;;;9.53;8.43;;;;;;;5.81;72.75;99896.50;5111500;27;20895;-82
2022/04/05 06:09:39;;;;;;;11.70;9.33;;;;;;;5.78;72.85;99902.34;5102655;28;20409;-78
2022/04/05 06:12:05;;;;;;;11.50;8.87;;;;;;;5.81;73.16;99907.28;5100441;28;20404;-86
2022/04/05 06:14:30;;;;;;;11.15;9.18;;;;;;;5.85;72.95;99908.47;5092664;28;20405;-85
2022/04/05 06:16:56;;;;;;;11.87;9.47;;;;;;;5.76;72.91;99909.84;5103870;28;20881;-87
2022/04/05 06:19:21;;;;;;;9.80;8.70;;;;;;;5.96;72.23;99920.34;5104644;28;20412;-86
2022/04/05 06:21:46;;;;;;;10.57;8.87;;;;;;;5.94;72.39;99917.06;5103247;28;21222;-85
2022/04/05 06:24:11;;;;;;;9.60;8.70;;;;;;;5.88;72.72;99926.88;5105642;28;20886;-83
2022/04/05 06:26:37;;;;;;;12.35;9.23;;;;;;;5.88;72.96;99912.59;5103965;28;20393;-83
2022/04/05 06:29:02;;;;;;;11.23;9.17;;;;;;;5.97;72.28;99912.03;5103593;28;20401;-83
2022/04/05 06:31:27;;;;;;;10.85;8.80;;;;;;;5.98;72.40;99921.75;5109281;28;20395;-83
2022/04/05 06:33:53;;;;;;;10.90;9.47;;;;;;;5.96;72.93;99915.78;5101571;28;20400;-84
2022/04/05 06:36:18;;;;;;;9.97;8.93;;;;;;;5.95;72.50;99921.41;5105848;27;20438;-84
2022/04/05 06:38:43;;;;;;;10.10;9.10;;;;;;;5.94;72.67;99917.88;5106241;28;20899;-82
2022/04/05 06:41:09;;;;;;;9.40;8.40;;;;;;;6.03;72.33;99919.19;5107461;28;20882;-83
2022/04/05 06:43:35;;;;;;;10.20;8.30;;;;;;;6.10;71.87;99922.63;5099375;28;20461;-82
2022/04/05 06:46:00;;;;;;;14.15;9.07;;;;;;;6.13;71.27;99921.34;5093156;28;20393;-83
2022/04/05 06:48:26;;;;;;;10.40;8.13;;;;;;;6.11;71.45;99910.00;5107696;28;20390;-83
2022/04/05 06:50:52;;;;;;;10.48;9.38;;;;;;;6.25;70.65;99906.06;5098967;28;20440;-83
2022/04/05 06:53:17;;;;;;;10.52;9.43;;;;;;;6.16;70.79;99902.88;5100489;28;20733;-84
2022/04/05 06:55:43;;;;;;;8.77;7.88;;;;;;;6.31;70.34;99888.16;5107002;28;20717;-83
2022/04/05 06:58:08;;;;;;;9.50;8.53;;;;;;;6.50;69.61;99895.94;5095111;28;20793;-83
2022/04/05 07:00:34;;;;;;;9.17;8.27;;;;;;;6.47;69.30;99887.50;5110415;28;20887;-83
2022/04/05 07:03:00;;;;;;;10.03;8.63;;;;;;;6.52;68.49;99888.44;5103974;28;20479;-84
2022/04/05 07:05:25;;;;;;;16.97;8.77;;;;;;;6.61;68.50;99905.09;5111391;28;20419;-85
2022/04/05 07:07:51;;;;;;;10.65;8.80;;;;;;;6.67;68.33;99896.06;5093510;28;20780;-84
2022/04/05 07:10:18;;;;;;;13.27;8.45;;;;;;;6.83;67.88;99899.94;5097234;28;20410;-83
2022/04/05 07:12:45;;;;;;;8.40;7.57;;;;;;;6.84;67.08;99894.31;5100433;28;20871;-84
2022/04/05 07:15:10;;;;;;;9.60;7.93;;;;;;;6.76;67.48;99911.63;5104047;28;20392;-83
2022/04/05 07:17:37;;;;;;;10.88;9.05;;;;;;;6.79;68.06;99913.03;5110639;28;20391;-85
2022/04/05 07:20:07;;;;;;;10.25;8.68;;;;;;;6.72;67.73;99907.78;5092127;28;20461;-83
2022/04/05 07:22:32;;;;;;;11.57;9.27;;;;;;;6.60;68.00;99917.72;5090877;28;20396;-83
2022/04/05 07:24:58;;;;;;;10.43;9.07;;;;;;;6.55;68.83;99912.19;5099241;28;20462;-83
2022/04/05 07:27:23;;;;;;;10.40;9.30;;;;;;;6.62;68.76;99906.69;5106161;28;20503;-84
2022/04/05 07:29:48;;;;;;;14.50;9.37;;;;;;;6.58;68.41;99909.06;5095323;28;20404;-83
2022/04/05 07:32:13;;;;;;;12.63;9.90;;;;;;;6.65;68.63;99914.34;5096870;28;20398;-84
2022/04/05 07:34:39;;;;;;;13.13;10.60;;;;;;;6.58;68.60;99903.69;5093888;28;20501;-84
2022/04/05 07:37:04;;;;;;;16.67;11.80;;;;;;;6.60;69.09;99906.13;5099625;28;20406;-83
2022/04/05 07:39:29;;;;;;;13.10;10.30;;;;;;;6.65;69.00;99904.38;5106142;28;20410;-83
2022/04/05 07:41:55;;;;;;;13.18;9.52;;;;;;;6.73;68.93;99906.72;5101074;28;20511;-84
2022/04/05 07:44:20;;;;;;;12.73;9.30;;;;;;;6.67;69.24;99918.44;5108454;28;20400;-84
2022/04/05 07:46:46;;;;;;;12.87;10.50;;;;;;;6.61;69.59;99921.22;5103236;27;20418;-83
2022/04/05 07:49:12;;;;;;;13.57;10.25;;;;;;;6.63;69.78;99916.44;5097827;28;20406;-84
2022/04/05 07:51:38;;;;;;;9.80;8.77;;;;;;;6.71;69.73;99927.69;5107007;28;20483;-83
2022/04/05 07:54:06;;;;;;;12.60;9.93;;;;;;;6.56;69.96;99916.53;5096568;28;20421;-84
2022/04/05 07:56:32;;;;;;;14.60;10.20;;;;;;;6.50;70.25;99911.25;5105585;28;20863;-84
2022/04/05 07:58:57;;;;;;;14.02;10.70;;;;;;;6.56;70.45;99918.41;5094604;28;20374;-84
2022/04/05 08:01:24;;;;;;;11.83;9.57;;;;;;;6.59;70.19;99913.38;5101245;28;20802;-83
2022/04/05 08:03:50;;;;;;;17.35;10.52;;;;;;;6.78;69.39;99909.53;5108141;28;20400;-83
2022/04/05 08:06:15;;;;;;;11.45;9.88;;;;;;;6.85;69.45;99901.31;5097546;28;20485;-83
2022/04/05 08:08:41;;;;;;;10.43;8.87;;;;;;;6.93;69.44;99911.75;5092825;28;20828;-83
2022/04/05 08:11:06;;;;;;;11.67;8.47;;;;;;;6.79;68.93;99907.66;5106139;28;20460;-87
2022/04/05 08:13:31;;;;;;;9.07;8.10;;;;;;;6.81;68.85;99915.50;5107370;28;21276;-83
2022/04/05 08:15:56;;;;;;;14.57;9.23;;;;;;;6.78;68.83;99916.81;5105332;28;20409;-83
2022/04/05 08:18:22;;;;;;;9.57;8.57;;;;;;;6.77;68.29;99909.78;5106554;28;20443;-84
2022/04/05 08:20:48;;;;;;;10.97;8.20;;;;;;;6.87;67.62;99914.56;5109757;27;20461;-82
2022/04/05 08:23:13;;;;;;;9.90;8.85;;;;;;;6.81;68.46;99908.25;5096666;28;20421;-83
2022/04/05 08:25:38;;;;;;;10.02;8.55;;;;;;;6.82;68.35;99925.25;5104240;27;20447;-87
2022/04/05 08:28:04;;;;;;;11.63;9.00;;;;;;;6.85;68.27;99924.78;5099295;28;20417;-87
2022/04/05 08:30:30;;;;;;;9.30;8.38;;;;;;;6.86;68.00;99924.53;5107757;28;20430;-87
2022/04/05 08:32:56;;;;;;;11.45;8.65;;;;;;;6.86;67.82;99926.38;5096222;28;20396;-86
2022/04/05 08:35:23;;;;;;;11.73;8.48;;;;;;;6.88;67.71;99930.50;5102690;28;20404;-85
2022/04/05 08:37:50;;;;;;;10.05;8.93;;;;;;;6.99;67.55;99931.56;5105592;28;22608;-86
2022/04/05 08:40:17;;;;;;;8.77;7.97;;;;;;;6.94;67.04;99931.44;5095997;28;20414;-85
2022/04/05 08:42:46;;;;;;;12.50;8.18;;;;;;;6.92;67.14;99928.97;5108617;28;21021;-86
2022/04/05 08:45:13;;;;;;;12.23;8.95;;;;;;;6.98;66.58;99933.41;5096621;28;20415;-85
2022/04/05 08:47:51;;;;;;;14.18;11.02;;;;;;;6.98;66.64;99932.63;5103608;28;20454;-86
2022/04/05 08:50:19;;;;;;;11.65;9.05;;;;;;;6.97;66.60;99926.41;5109268;27;20478;-86
2022/04/05 08:52:45;;;;;;;14.57;10.55;;;;;;;7.17;65.70;99924.19;5093399;28;20744;-86
2022/04/05 08:55:12;;;;;;;9.45;7.78;;;;;;;7.32;65.15;99940.69;5093317;28;20935;-85
2022/04/05 08:57:38;;;;;;;12.45;8.60;;;;;;;7.46;64.33;99937.72;5093596;28;20406;-86
2022/04/05 09:00:07;;;;;;;19.33;13.45;;;;;;;7.37;64.76;99931.06;5101922;27;20547;-86
2022/04/05 09:02:32;;;;;;;13.73;10.32;;;;;;;7.27;65.24;99937.88;5106914;27;20765;-88
2022/04/05 09:04:57;;;;;;;13.85;9.25;;;;;;;7.36;64.99;99941.03;5090569;28;20401;-85
2022/04/05 09:07:34;;;;;;;13.50;9.20;;;;;;;7.48;64.42;99949.91;5088492;28;20449;-85
2022/04/05 09:10:12;;;;;;;13.52;8.90;;;;;;;7.54;64.59;99945.47;5088087;28;20756;-85
2022/04/05 09:12:46;;;;;;;12.48;8.52;;;;;;;7.50;63.97;99955.06;5093097;27;20411;-86
2022/04/05 09:15:20;;;;;;;11.32;8.60;;;;;;;7.61;64.67;99946.94;5091027;27;20455;-85
2022/04/05 09:17:48;;;;;;;68.57;60.87;;;;;;;7.64;63.06;99942.97;5085687;28;20413;-87
2022/04/05 09:20:15;;;;;;;9.55;7.88;;;;;;;7.62;63.67;99950.47;5088771;28;20776;-86
2022/04/05 09:22:41;;;;;;;8.60;7.15;;;;;;;7.63;63.69;99954.81;5093759;28;20416;-86
2022/04/05 09:25:10;;;;;;;9.27;8.18;;;;;;;7.68;63.78;99958.44;5091272;28;20803;-85
2022/04/05 09:27:53;;;;;;;10.45;8.05;;;;;;;7.79;63.58;99954.06;5087798;28;20404;-85
2022/04/05 09:30:22;;;;;;;8.07;7.25;;;;;;;7.67;64.57;99948.69;5076298;28;20887;-87
2022/04/05 09:32:48;;;;;;;9.02;7.63;;;;;;;7.81;64.25;99946.56;5089420;28;20489;-86
2022/04/05 09:35:18;;;;;;;8.35;7.53;;;;;;;7.88;63.82;99949.94;5091537;28;20431;-85
2022/04/05 09:37:45;;;;;;;9.40;8.07;;;;;;;7.88;63.27;99946.41;5090245;28;20440;-85
2022/04/05 09:40:26;;;;;;;8.25;7.45;;;;;;;7.83;63.73;99957.94;5088957;28;20409;-85
2022/04/05 09:43:12;;;;;;;8.57;7.78;;;;;;;7.97;62.97;99955.78;5105701;28;20401;-85
2022/04/05 09:46:00;;;;;;;8.50;7.70;;;;;;;7.84;62.31;99967.66;5094117;28;20442;-90
2022/04/05 09:48:30;;;;;;;13.23;8.37;;;;;;;7.80;62.93;99964.59;5093964;28;20897;-92
2022/04/05 09:51:09;;;;;;;9.35;8.23;;;;;;;7.75;63.61;99958.31;5093692;28;20400;-92
2022/04/05 09:53:47;;;;;;;10.18;7.95;;;;;;;7.87;63.89;99958.28;5094101;28;20420;-93
2022/04/05 09:56:20;;;;;;;11.45;8.55;;;;;;;7.87;63.07;99964.47;5094626;28;20419;-92
2022/04/05 09:58:54;;;;;;;9.10;8.20;;;;;;;7.93;63.08;99962.72;5092226;28;20398;-93
2022/04/05 10:01:23;;;;;;;8.55;7.35;;;;;;;7.95;62.42;99961.41;5094115;28;20487;-94
2022/04/05 10:04:04;;;;;;;8.57;7.67;;;;;;;8.08;61.48;99957.59;5094997;28;20396;-88
2022/04/05 10:06:31;;;;;;;10.18;7.88;;;;;;;8.15;61.24;99948.31;5099687;28;20396;-91
2022/04/05 10:08:58;;;;;;;9.23;7.78;;;;;;;8.23;61.27;99961.41;5106141;28;20417;-94
2022/04/05 10:11:25;;;;;;;11.55;9.50;;;;;;;8.21;61.72;99957.31;5096318;28;20419;-85
2022/04/05 10:13:51;;;;;;;9.23;8.32;;;;;;;8.12;61.99;99970.38;5089729;28;21105;-84
2022/04/05 10:16:19;;;;;;;8.17;7.17;;;;;;;8.10;61.45;99956.28;5085107;28;20425;-90
2022/04/05 10:18:47;;;;;;;11.23;9.10;;;;;;;7.94;62.99;99969.72;5083032;28;20753;-86
2022/04/05 10:21:14;;;;;;;10.73;8.05;;;;;;;8.02;62.82;99961.28;5084967;28;20402;-87
2022/04/05 10:23:43;;;;;;;13.55;9.50;;;;;;;8.13;63.24;99957.72;5096679;27;20489;-87
2022/04/05 10:26:10;;;;;;;9.40;7.47;;;;;;;8.12;62.65;99974.97;5094403;27;20486;-88
2022/04/05 10:28:36;;;;;;;11.20;8.13;;;;;;;8.12;63.05;99961.47;5106801;28;20768;-88
2022/04/05 10:31:17;;;;;;;9.52;7.95;;;;;;;8.09;63.54;99960.06;5093341;28;20896;-88
2022/04/05 10:33:55;;;;;;;8.95;7.75;;;;;;;8.15;63.15;99959.13;5098546;28;20534;-89
2022/04/05 10:36:24;;;;;;;10.70;8.43;;;;;;;8.27;63.66;99964.44;5104904;28;20409;-90
2022/04/05 10:39:14;;;;;;;8.80;8.00;;;;;;;8.24;63.33;99957.66;5102844;28;20404;-88
2022/04/05 10:41:40;;;;;;;10.88;7.38;;;;;;;8.15;63.09;99967.22;5101432;28;20400;-85
2022/04/05 10:44:18;;;;;;;9.70;7.97;;;;;;;8.23;63.21;99964.09;5107069;28;20797;-87
2022/04/05 10:46:53;;;;;;;10.18;6.78;;;;;;;8.22;63.43;99967.06;5094603;28;20524;-84
2022/04/05 10:49:46;;;;;;;9.80;7.30;;;;;;;8.16;64.16;99951.84;5095417;28;20441;-88
2022/04/05 10:52:18;;;;;;;8.20;7.15;;;;;;;8.21;63.57;99960.84;5100483;28;20918;-88
2022/04/05 10:54:49;;;;;;;8.60;7.35;;;;;;;8.14;63.58;99951.25;5091898;28;20412;-85
2022/04/05 10:57:26;;;;;;;11.23;6.78;;;;;;;8.15;63.44;99945.63;5101272;28;20837;-86
2022/04/05 11:00:24;;;;;;;8.52;7.70;;;;;;;8.22;63.48;99953.56;5102672;28;20495;-84
2022/04/05 11:02:58;;;;;;;8.13;7.37;;;;;;;8.22;63.53;99956.25;5094633;28;20416;-84
2022/04/05 11:05:24;;;;;;;12.35;8.02;;;;;;;8.18;63.45;99947.00;5098127;28;20769;-84
2022/04/05 11:07:52;;;;;;;9.55;7.35;;;;;;;8.21;63.45;99950.03;5105511;28;20982;-83
2022/04/05 11:10:45;;;;;;;12.07;7.15;;;;;;;8.30;63.72;99954.00;5094289;28;20784;-83
2022/04/05 11:13:18;;;;;;;11.48;7.00;;;;;;;8.45;63.34;99934.59;5110020;28;20420;-83
2022/04/05 11:15:50;;;;;;;7.80;7.10;;;;;;;8.45;64.19;99950.78;5106383;28;20480;-83
2022/04/05 11:18:20;;;;;;;7.97;6.97;;;;;;;8.52;64.25;99945.22;5103571;28;20402;-86
2022/04/05 11:20:47;;;;;;;7.82;6.68;;;;;;;8.68;64.02;99952.53;5110080;28;20886;-88
2022/04/05 11:23:19;;;;;;;7.95;7.18;;;;;;;8.89;64.38;99945.56;5103149;28;20782;-89
2022/04/05 11:25:46;;;;;;;8.73;7.20;;;;;;;9.13;63.56;99941.59;5095105;28;20993;-92
2022/04/05 11:28:25;;;;;;;10.38;7.18;;;;;;;9.21;63.57;99933.09;5110523;27;20412;-90
2022/04/05 11:30:54;;;;;;;8.52;7.40;;;;;;;9.18;63.37;99933.59;5092795;28;20424;-82
2022/04/05 11:33:26;;;;;;;7.13;6.45;;;;;;;9.22;63.64;99940.16;5099463;27;20412;-85
2022/04/05 11:35:55;;;;;;;8.17;6.93;;;;;;;9.36;62.53;99941.41;5094853;27;20408;-85
2022/04/05 11:38:21;;;;;;;9.93;6.65;;;;;;;9.37;63.01;99943.06;5100121;27;20836;-84
2022/04/05 11:40:52;;;;;;;8.07;7.15;;;;;;;9.09;64.56;99940.50;5099864;28;20416;-84